createdAt,value
2019-02-22T00:02:09.601Z,8.27
2019-02-22T00:07:15.338Z,8.43
2019-02-22T00:12:21.320Z,5.90
2019-02-22T00:17:25.787Z,7.90
2019-02-22T00:22:30.767Z,8.23
2019-02-22T00:27:35.871Z,6.20
2019-02-22T00:32:42.418Z,7.77
2019-02-22T00:37:46.414Z,7.40
2019-02-22T00:42:50.714Z,5.93
2019-02-22T00:47:54.911Z,7.90
2019-02-22T00:52:59.298Z,6.27
2019-02-22T00:58:03.482Z,9.73
2019-02-22T01:03:08.012Z,6.23
2019-02-22T01:08:12.317Z,7.77
2019-02-22T01:13:16.640Z,5.27
2019-02-22T01:18:20.939Z,5.10
2019-02-22T01:23:26.330Z,7.10
2019-02-22T01:28:30.523Z,7.07
2019-02-22T01:33:35.977Z,6.33
2019-02-22T01:38:40.281Z,6.07
2019-02-22T01:43:44.458Z,6.63
2019-02-22T01:48:48.688Z,6.43
2019-02-22T01:53:54.043Z,7.07
2019-02-22T01:58:58.344Z,4.63
2019-02-22T02:04:02.503Z,6.13
2019-02-22T02:09:07.495Z,5.73
2019-02-22T02:14:12.554Z,4.93
2019-02-22T02:19:17.915Z,7.03
2019-02-22T02:24:22.290Z,5.40
2019-02-22T02:29:26.566Z,5.63
2019-02-22T02:34:30.744Z,5.13
2019-02-22T02:39:36.548Z,6.57
2019-02-22T02:44:40.794Z,3.90
2019-02-22T02:49:45.565Z,5.20
2019-02-22T02:54:49.747Z,4.97
2019-02-22T02:59:53.895Z,5.67
2019-02-22T03:04:58.238Z,4.70
2019-02-22T03:10:02.834Z,4.73
2019-02-22T03:15:08.673Z,5.43
2019-02-22T03:20:14.471Z,5.27
2019-02-22T03:25:19.344Z,3.23
2019-02-22T03:30:23.658Z,4.63
2019-02-22T03:35:27.879Z,4.80
2019-02-22T03:40:32.144Z,4.23
2019-02-22T03:45:36.703Z,3.90
2019-02-22T03:50:41.130Z,3.03
2019-02-22T03:55:45.502Z,3.57
2019-02-22T04:00:49.687Z,5.03
2019-02-22T04:05:54.881Z,3.90
2019-02-22T04:10:59.347Z,3.50
2019-02-22T04:16:04.031Z,4.23
2019-02-22T04:21:09.385Z,3.00
2019-02-22T04:26:13.773Z,3.00
2019-02-22T04:31:17.931Z,3.03
2019-02-22T04:36:22.217Z,3.10
2019-02-22T04:41:26.826Z,2.77
2019-02-22T04:46:30.993Z,3.10
2019-02-22T04:51:35.255Z,4.40
2019-02-22T04:56:39.445Z,4.10
2019-02-22T05:01:44.242Z,5.10
2019-02-22T05:06:48.413Z,4.77
2019-02-22T05:11:52.598Z,6.23
2019-02-22T05:16:56.816Z,23.47
2019-02-22T05:22:01.126Z,41.73
2019-02-22T05:27:05.975Z,26.03
2019-02-22T05:32:10.770Z,24.17
2019-02-22T05:37:15.178Z,22.67
2019-02-22T05:42:22.986Z,19.13
2019-02-22T05:47:25.759Z,15.93
2019-02-22T05:52:29.949Z,16.07
2019-02-22T05:57:34.582Z,20.00
2019-02-22T06:02:38.856Z,15.27
2019-02-22T06:07:43.116Z,11.03
2019-02-22T06:12:47.473Z,14.40
2019-02-22T06:17:51.691Z,12.00
2019-02-22T06:22:56.003Z,11.90
2019-02-22T06:28:00.844Z,12.03
2019-02-22T06:33:05.397Z,9.80
2019-02-22T06:38:09.796Z,9.67
2019-02-22T06:43:15.646Z,10.20
2019-02-22T06:48:19.862Z,15.03
2019-02-22T06:53:24.281Z,7.37
2019-02-22T06:58:28.698Z,13.87
2019-02-22T07:03:32.897Z,11.47
2019-02-22T07:08:37.223Z,8.00
2019-02-22T07:13:41.449Z,9.40
2019-02-22T07:18:45.804Z,11.80
2019-02-22T07:23:50.445Z,10.27
2019-02-22T07:28:54.643Z,7.17
2019-02-22T07:33:58.811Z,14.43
2019-02-22T07:39:03.079Z,12.67
2019-02-22T07:44:07.962Z,16.73
2019-02-22T07:49:24.491Z,10.20
2019-02-22T07:54:28.712Z,8.57
2019-02-22T07:59:32.858Z,8.70
2019-02-22T08:04:37.212Z,16.10
2019-02-22T08:09:42.082Z,7.90
2019-02-22T08:14:47.166Z,9.87
2019-02-22T08:19:51.347Z,8.77
2019-02-22T08:24:55.902Z,12.17
2019-02-22T08:30:00.640Z,18.43
2019-02-22T08:35:06.407Z,18.63
2019-02-22T08:40:12.158Z,20.60
2019-02-22T08:45:17.891Z,21.80
2019-02-22T08:50:23.101Z,28.47
2019-02-22T08:55:27.887Z,27.97
2019-02-22T09:00:32.109Z,27.00
2019-02-22T09:05:37.061Z,31.07
2019-02-22T09:10:43.777Z,24.93
2019-02-22T09:15:49.555Z,27.20
2019-02-22T09:20:54.539Z,49.60
2019-02-22T09:25:58.826Z,38.70
2019-02-22T09:31:03.033Z,28.77
2019-02-22T09:36:07.541Z,31.87
2019-02-22T09:41:13.293Z,27.30
2019-02-22T09:46:17.568Z,26.07
2019-02-22T09:51:21.807Z,26.23
2019-02-22T09:56:27.166Z,24.20
2019-02-22T10:01:31.476Z,28.13
2019-02-22T10:06:35.990Z,21.70
2019-02-22T10:11:41.709Z,23.07
2019-02-22T10:16:46.013Z,21.20
2019-02-22T10:21:51.706Z,18.50
2019-02-22T10:26:55.989Z,20.00
2019-02-22T10:32:00.384Z,17.87
2019-02-22T10:37:04.749Z,19.97
2019-02-22T10:42:10.517Z,16.00
2019-02-22T10:47:14.849Z,24.43
2019-02-22T10:52:19.042Z,17.67
2019-02-22T10:57:23.471Z,16.23
2019-02-22T11:02:27.673Z,19.37
2019-02-22T11:07:32.562Z,14.37
2019-02-22T11:12:38.115Z,15.60
2019-02-22T11:17:42.927Z,12.90
2019-02-22T11:22:48.623Z,17.83
2019-02-22T11:27:53.033Z,15.30
2019-02-22T11:32:57.321Z,13.47
2019-02-22T11:38:01.587Z,15.70
2019-02-22T11:43:06.238Z,12.83
2019-02-22T11:48:11.993Z,15.17
2019-02-22T11:53:17.756Z,11.40
2019-02-22T11:58:22.282Z,13.97
2019-02-22T12:03:26.979Z,12.10
2019-02-22T12:08:31.788Z,10.50
2019-02-22T12:13:35.983Z,12.10
2019-02-22T12:18:40.877Z,11.10
2019-02-22T12:23:45.986Z,10.93
2019-02-22T12:28:50.463Z,9.13
2019-02-22T12:33:54.778Z,9.77
2019-02-22T12:38:59.534Z,10.57
2019-02-22T12:44:04.273Z,10.57
2019-02-22T12:49:08.858Z,12.90
2019-02-22T12:54:13.357Z,10.70
2019-02-22T12:59:18.406Z,7.93
2019-02-22T13:04:24.208Z,9.73
2019-02-22T13:09:36.276Z,9.30
2019-02-22T13:14:35.312Z,11.73
2019-02-22T13:19:39.472Z,8.33
2019-02-22T13:24:44.316Z,9.33
2019-02-22T13:29:48.583Z,10.90
2019-02-22T13:34:52.802Z,9.50
2019-02-22T13:39:57.014Z,10.90
2019-02-22T13:45:01.950Z,9.47
2019-02-22T13:50:10.381Z,12.17
2019-02-22T13:55:16.132Z,10.37
2019-02-22T14:00:20.754Z,13.20
2019-02-22T14:05:24.980Z,14.30
2019-02-22T14:10:29.313Z,10.47
2019-02-22T14:15:37.887Z,13.00
2019-02-22T14:20:39.472Z,11.80
2019-02-22T14:25:43.915Z,11.10
2019-02-22T14:30:48.330Z,12.77
2019-02-22T14:35:54.054Z,10.07
2019-02-22T14:40:58.351Z,12.30
2019-02-22T14:46:02.501Z,10.83
2019-02-22T14:51:06.923Z,14.67
2019-02-22T14:56:11.323Z,11.67
2019-02-22T15:01:16.066Z,9.40
2019-02-22T15:06:21.978Z,10.03
2019-02-22T15:11:26.390Z,14.53
2019-02-22T15:16:30.644Z,8.37
2019-02-22T15:21:35.199Z,12.27
2019-02-22T15:26:39.396Z,9.67
2019-02-22T15:31:43.720Z,8.87
2019-02-22T15:36:48.936Z,8.23
2019-02-22T15:41:53.753Z,14.83
2019-02-22T15:46:58.522Z,9.27
2019-02-22T15:52:02.722Z,8.37
2019-02-22T15:57:07.946Z,10.73
2019-02-22T16:02:12.389Z,6.13
2019-02-22T16:07:16.926Z,7.07
2019-02-22T16:12:22.353Z,10.30
2019-02-22T16:17:26.719Z,5.90
2019-02-22T16:22:31.098Z,6.13
2019-02-22T16:27:35.594Z,7.03
2019-02-22T16:32:40.239Z,7.73
2019-02-22T16:37:44.832Z,6.50
2019-02-22T16:42:49.039Z,5.67
2019-02-22T16:47:54.193Z,5.07
2019-02-22T16:52:58.755Z,5.10
2019-02-22T16:58:03.523Z,7.77
2019-02-22T17:03:08.271Z,5.90
2019-02-22T17:08:12.683Z,7.70
2019-02-22T17:13:18.874Z,5.40
2019-02-22T17:18:23.203Z,8.53
2019-02-22T17:23:27.508Z,6.53
2019-02-22T17:28:31.796Z,8.37
2019-02-22T17:33:36.155Z,5.97
2019-02-22T17:38:40.550Z,4.80
2019-02-22T17:43:46.065Z,5.87
2019-02-22T17:48:50.262Z,4.43
2019-02-22T17:53:56.031Z,7.33
2019-02-22T17:59:00.336Z,6.50
2019-02-22T18:04:05.023Z,8.97
2019-02-22T18:09:10.248Z,4.90
2019-02-22T18:14:15.071Z,6.27
2019-02-22T18:19:19.589Z,8.03
2019-02-22T18:24:23.980Z,6.83
2019-02-22T18:29:35.407Z,12.83
2019-02-22T18:34:34.961Z,17.10
2019-02-22T18:39:39.590Z,19.63
2019-02-22T18:44:43.886Z,19.37
2019-02-22T18:49:48.487Z,17.97
2019-02-22T18:54:52.982Z,17.50
2019-02-22T18:59:57.247Z,12.20
2019-02-22T19:05:13.560Z,14.67
2019-02-22T19:10:17.810Z,15.13
2019-02-22T19:15:22.187Z,18.03
2019-02-22T19:20:26.525Z,19.27
2019-02-22T19:25:30.835Z,18.77
2019-02-22T19:30:35.245Z,17.63
2019-02-22T19:35:39.682Z,20.33
2019-02-22T19:40:45.118Z,19.80
2019-02-22T19:45:49.381Z,18.73
2019-02-22T19:56:31.051Z,16.27
2019-02-22T20:06:55.693Z,19.27
2019-02-22T20:12:00.355Z,19.57
2019-02-22T20:17:04.842Z,20.97
2019-02-22T20:22:11.009Z,16.20
2019-02-22T20:27:15.565Z,16.60
2019-02-22T20:32:19.941Z,14.63
2019-02-22T20:37:24.573Z,15.03
2019-02-22T20:42:28.929Z,15.10
2019-02-22T20:47:33.590Z,17.70
2019-02-22T20:52:37.958Z,13.80
2019-02-22T20:57:42.738Z,14.00
2019-02-22T21:02:46.910Z,10.97
2019-02-22T21:07:51.317Z,12.70
2019-02-22T21:12:55.519Z,11.93
2019-02-22T21:24:26.111Z,11.13
2019-02-22T21:29:30.381Z,10.60
2019-02-22T21:34:34.586Z,10.93
2019-02-22T21:39:40.705Z,11.37
2019-02-22T21:44:44.999Z,10.17
2019-02-22T21:49:49.254Z,10.30
2019-02-22T21:54:53.810Z,10.47
2019-02-22T21:59:58.006Z,11.10
2019-02-22T22:05:02.309Z,10.93
2019-02-22T22:10:06.930Z,12.47
2019-02-22T22:15:12.585Z,11.30
2019-02-22T22:20:17.967Z,10.40
2019-02-22T22:25:22.167Z,8.37
2019-02-22T22:30:26.847Z,9.53
2019-02-22T22:35:31.043Z,7.27
2019-02-22T22:40:35.912Z,9.07
2019-02-22T22:45:40.060Z,10.13
2019-02-22T22:50:44.731Z,9.23
2019-02-22T22:55:49.577Z,8.03
2019-02-22T23:00:59.331Z,8.67
2019-02-22T23:06:04.309Z,8.90
2019-02-22T23:11:10.039Z,8.87
2019-02-22T23:16:15.369Z,8.83
2019-02-22T23:21:19.882Z,7.30
2019-02-22T23:26:25.595Z,8.27
2019-02-22T23:31:29.778Z,8.87
2019-02-22T23:36:34.054Z,10.27
2019-02-22T23:41:38.508Z,9.63
2019-02-22T23:46:42.722Z,8.57
2019-02-22T23:51:47.217Z,7.80
2019-02-22T23:56:51.430Z,7.77
